sensor_id;sensor_type;location;lat;lon;timestamp;temperature;humidity
20492;DHT22;10404;51.468;6.762;2024-01-30T00:00:07;6.80;78.30
20492;DHT22;10404;51.468;6.762;2024-01-30T00:02:33;6.80;78.40
20492;DHT22;10404;51.468;6.762;2024-01-30T00:04:59;6.80;78.40
20492;DHT22;10404;51.468;6.762;2024-01-30T00:07:25;6.80;78.20
20492;DHT22;10404;51.468;6.762;2024-01-30T00:09:50;6.70;78.30
20492;DHT22;10404;51.468;6.762;2024-01-30T00:12:16;6.80;78.30
20492;DHT22;10404;51.468;6.762;2024-01-30T00:14:42;6.80;78.30
20492;DHT22;10404;51.468;6.762;2024-01-30T00:17:09;6.80;78.30
20492;DHT22;10404;51.468;6.762;2024-01-30T00:19:34;6.70;78.30
20492;DHT22;10404;51.468;6.762;2024-01-30T00:22:00;6.70;78.30
20492;DHT22;10404;51.468;6.762;2024-01-30T00:24:26;6.70;78.30
20492;DHT22;10404;51.468;6.762;2024-01-30T00:26:51;6.70;78.40
20492;DHT22;10404;51.468;6.762;2024-01-30T00:29:17;6.70;78.30
20492;DHT22;10404;51.468;6.762;2024-01-30T00:31:45;6.70;78.50
20492;DHT22;10404;51.468;6.762;2024-01-30T00:34:11;6.70;78.40
20492;DHT22;10404;51.468;6.762;2024-01-30T00:36:37;6.70;78.20
20492;DHT22;10404;51.468;6.762;2024-01-30T00:39:02;6.70;78.40
20492;DHT22;10404;51.468;6.762;2024-01-30T00:41:32;6.70;78.50
20492;DHT22;10404;51.468;6.762;2024-01-30T00:43:57;6.70;78.40
20492;DHT22;10404;51.468;6.762;2024-01-30T00:46:23;6.70;78.40
20492;DHT22;10404;51.468;6.762;2024-01-30T00:48:48;6.70;78.30
20492;DHT22;10404;51.468;6.762;2024-01-30T00:51:14;6.70;78.30
20492;DHT22;10404;51.468;6.762;2024-01-30T00:53:40;6.70;78.40
20492;DHT22;10404;51.468;6.762;2024-01-30T00:56:07;6.60;78.40
20492;DHT22;10404;51.468;6.762;2024-01-30T00:58:33;6.60;78.30
20492;DHT22;10404;51.468;6.762;2024-01-30T01:00:59;6.70;78.50
20492;DHT22;10404;51.468;6.762;2024-01-30T01:03:24;6.60;78.50
20492;DHT22;10404;51.468;6.762;2024-01-30T01:05:50;6.60;78.50
20492;DHT22;10404;51.468;6.762;2024-01-30T01:08:15;6.60;78.40
20492;DHT22;10404;51.468;6.762;2024-01-30T01:10:41;6.60;78.40
20492;DHT22;10404;51.468;6.762;2024-01-30T01:13:07;6.60;78.50
20492;DHT22;10404;51.468;6.762;2024-01-30T01:15:32;6.60;78.50
20492;DHT22;10404;51.468;6.762;2024-01-30T01:17:58;6.60;78.60
20492;DHT22;10404;51.468;6.762;2024-01-30T01:20:23;6.60;78.60
20492;DHT22;10404;51.468;6.762;2024-01-30T01:22:49;6.60;78.40
20492;DHT22;10404;51.468;6.762;2024-01-30T01:25:14;6.60;78.60
20492;DHT22;10404;51.468;6.762;2024-01-30T01:27:40;6.60;78.60
20492;DHT22;10404;51.468;6.762;2024-01-30T01:30:09;6.50;78.60
20492;DHT22;10404;51.468;6.762;2024-01-30T01:32:35;6.60;78.60
20492;DHT22;10404;51.468;6.762;2024-01-30T01:35:01;6.50;78.60
20492;DHT22;10404;51.468;6.762;2024-01-30T01:37:28;6.60;78.50
20492;DHT22;10404;51.468;6.762;2024-01-30T01:39:53;6.50;78.50
20492;DHT22;10404;51.468;6.762;2024-01-30T01:42:19;6.50;78.70
20492;DHT22;10404;51.468;6.762;2024-01-30T01:44:44;6.50;78.70
20492;DHT22;10404;51.468;6.762;2024-01-30T01:47:10;6.50;78.80
20492;DHT22;10404;51.468;6.762;2024-01-30T01:49:36;6.50;78.90
20492;DHT22;10404;51.468;6.762;2024-01-30T01:52:02;6.50;78.60
20492;DHT22;10404;51.468;6.762;2024-01-30T01:54:28;6.50;78.70
20492;DHT22;10404;51.468;6.762;2024-01-30T01:56:54;6.50;78.70
20492;DHT22;10404;51.468;6.762;2024-01-30T01:59:20;6.50;78.80
20492;DHT22;10404;51.468;6.762;2024-01-30T02:01:47;6.50;78.80
20492;DHT22;10404;51.468;6.762;2024-01-30T02:04:16;6.50;78.90
20492;DHT22;10404;51.468;6.762;2024-01-30T02:06:43;6.50;79.00
20492;DHT22;10404;51.468;6.762;2024-01-30T02:09:08;6.40;79.00
20492;DHT22;10404;51.468;6.762;2024-01-30T02:11:34;6.50;79.00
20492;DHT22;10404;51.468;6.762;2024-01-30T02:14:03;6.40;79.10
20492;DHT22;10404;51.468;6.762;2024-01-30T02:16:29;6.40;79.00
20492;DHT22;10404;51.468;6.762;2024-01-30T02:18:55;6.40;79.00
20492;DHT22;10404;51.468;6.762;2024-01-30T02:21:21;6.40;79.10
20492;DHT22;10404;51.468;6.762;2024-01-30T02:23:47;6.40;79.10
20492;DHT22;10404;51.468;6.762;2024-01-30T02:26:13;6.40;79.00
20492;DHT22;10404;51.468;6.762;2024-01-30T02:28:39;6.40;79.10
20492;DHT22;10404;51.468;6.762;2024-01-30T02:31:05;6.40;79.10
20492;DHT22;10404;51.468;6.762;2024-01-30T02:33:30;6.40;79.10
20492;DHT22;10404;51.468;6.762;2024-01-30T02:35:56;6.40;79.00
20492;DHT22;10404;51.468;6.762;2024-01-30T02:38:22;6.40;79.00
20492;DHT22;10404;51.468;6.762;2024-01-30T02:40:49;6.40;79.20
20492;DHT22;10404;51.468;6.762;2024-01-30T02:43:15;6.40;79.10
20492;DHT22;10404;51.468;6.762;2024-01-30T02:45:41;6.40;79.20
20492;DHT22;10404;51.468;6.762;2024-01-30T02:48:07;6.40;79.10
20492;DHT22;10404;51.468;6.762;2024-01-30T02:50:32;6.40;79.20
20492;DHT22;10404;51.468;6.762;2024-01-30T02:52:58;6.30;79.00
20492;DHT22;10404;51.468;6.762;2024-01-30T02:55:23;6.30;79.30
20492;DHT22;10404;51.468;6.762;2024-01-30T02:57:49;6.30;79.20
20492;DHT22;10404;51.468;6.762;2024-01-30T03:00:15;6.30;79.30
20492;DHT22;10404;51.468;6.762;2024-01-30T03:02:40;6.30;79.40
20492;DHT22;10404;51.468;6.762;2024-01-30T03:05:07;6.30;79.30
20492;DHT22;10404;51.468;6.762;2024-01-30T03:07:33;6.30;79.30
20492;DHT22;10404;51.468;6.762;2024-01-30T03:09:59;6.30;79.40
20492;DHT22;10404;51.468;6.762;2024-01-30T03:12:25;6.30;79.40
20492;DHT22;10404;51.468;6.762;2024-01-30T03:14:50;6.30;79.30
20492;DHT22;10404;51.468;6.762;2024-01-30T03:17:16;6.30;79.30
20492;DHT22;10404;51.468;6.762;2024-01-30T03:19:41;6.30;79.40
20492;DHT22;10404;51.468;6.762;2024-01-30T03:22:07;6.30;79.50
20492;DHT22;10404;51.468;6.762;2024-01-30T03:24:33;6.30;79.50
20492;DHT22;10404;51.468;6.762;2024-01-30T03:26:58;6.30;79.60
20492;DHT22;10404;51.468;6.762;2024-01-30T03:29:24;6.30;79.50
20492;DHT22;10404;51.468;6.762;2024-01-30T03:31:49;6.30;79.40
20492;DHT22;10404;51.468;6.762;2024-01-30T03:34:15;6.30;79.50
20492;DHT22;10404;51.468;6.762;2024-01-30T03:36:40;6.30;79.40
20492;DHT22;10404;51.468;6.762;2024-01-30T03:39:06;6.20;79.50
20492;DHT22;10404;51.468;6.762;2024-01-30T03:41:32;6.30;79.60
20492;DHT22;10404;51.468;6.762;2024-01-30T03:43:57;6.20;79.50
20492;DHT22;10404;51.468;6.762;2024-01-30T03:46:23;6.20;79.70
20492;DHT22;10404;51.468;6.762;2024-01-30T03:48:49;6.20;79.70
20492;DHT22;10404;51.468;6.762;2024-01-30T03:51:15;6.20;79.70
20492;DHT22;10404;51.468;6.762;2024-01-30T03:53:44;6.20;79.70
20492;DHT22;10404;51.468;6.762;2024-01-30T03:56:11;6.20;79.80
20492;DHT22;10404;51.468;6.762;2024-01-30T03:58:38;6.20;79.70
20492;DHT22;10404;51.468;6.762;2024-01-30T04:01:04;6.20;79.80
20492;DHT22;10404;51.468;6.762;2024-01-30T04:03:29;6.20;79.80
20492;DHT22;10404;51.468;6.762;2024-01-30T04:05:55;6.20;79.80
20492;DHT22;10404;51.468;6.762;2024-01-30T04:08:20;6.20;79.80
20492;DHT22;10404;51.468;6.762;2024-01-30T04:10:46;6.20;79.80
20492;DHT22;10404;51.468;6.762;2024-01-30T04:13:13;6.20;79.70
20492;DHT22;10404;51.468;6.762;2024-01-30T04:15:39;6.20;79.90
20492;DHT22;10404;51.468;6.762;2024-01-30T04:18:04;6.20;80.00
20492;DHT22;10404;51.468;6.762;2024-01-30T04:20:30;6.20;79.90
20492;DHT22;10404;51.468;6.762;2024-01-30T04:22:56;6.20;80.00
20492;DHT22;10404;51.468;6.762;2024-01-30T04:25:21;6.10;79.90
20492;DHT22;10404;51.468;6.762;2024-01-30T04:27:47;6.20;80.00
20492;DHT22;10404;51.468;6.762;2024-01-30T04:30:13;6.10;79.90
20492;DHT22;10404;51.468;6.762;2024-01-30T04:32:39;6.10;79.90
20492;DHT22;10404;51.468;6.762;2024-01-30T04:35:05;6.10;79.90
20492;DHT22;10404;51.468;6.762;2024-01-30T04:37:30;6.10;79.80
20492;DHT22;10404;51.468;6.762;2024-01-30T04:39:56;6.10;79.90
20492;DHT22;10404;51.468;6.762;2024-01-30T04:42:22;6.10;80.10
20492;DHT22;10404;51.468;6.762;2024-01-30T04:44:48;6.10;80.00
20492;DHT22;10404;51.468;6.762;2024-01-30T04:47:13;6.10;80.00
20492;DHT22;10404;51.468;6.762;2024-01-30T04:49:39;6.10;80.00
20492;DHT22;10404;51.468;6.762;2024-01-30T04:52:06;6.10;80.00
20492;DHT22;10404;51.468;6.762;2024-01-30T04:54:31;6.10;80.00
20492;DHT22;10404;51.468;6.762;2024-01-30T04:56:57;6.10;80.00
20492;DHT22;10404;51.468;6.762;2024-01-30T04:59:23;6.10;80.00
20492;DHT22;10404;51.468;6.762;2024-01-30T05:01:49;6.10;80.10
20492;DHT22;10404;51.468;6.762;2024-01-30T05:04:15;6.10;80.10
20492;DHT22;10404;51.468;6.762;2024-01-30T05:06:40;6.10;80.10
20492;DHT22;10404;51.468;6.762;2024-01-30T05:09:06;6.10;80.20
20492;DHT22;10404;51.468;6.762;2024-01-30T05:11:36;6.00;80.30
20492;DHT22;10404;51.468;6.762;2024-01-30T05:14:02;6.10;80.20
20492;DHT22;10404;51.468;6.762;2024-01-30T05:16:27;6.00;80.20
20492;DHT22;10404;51.468;6.762;2024-01-30T05:18:53;6.00;80.00
20492;DHT22;10404;51.468;6.762;2024-01-30T05:21:18;6.10;80.00
20492;DHT22;10404;51.468;6.762;2024-01-30T05:23:44;6.00;80.30
20492;DHT22;10404;51.468;6.762;2024-01-30T05:26:10;6.00;80.10
20492;DHT22;10404;51.468;6.762;2024-01-30T05:28:35;6.00;80.10
20492;DHT22;10404;51.468;6.762;2024-01-30T05:31:01;6.00;80.10
20492;DHT22;10404;51.468;6.762;2024-01-30T05:33:27;6.00;80.10
20492;DHT22;10404;51.468;6.762;2024-01-30T05:35:53;6.00;80.20
20492;DHT22;10404;51.468;6.762;2024-01-30T05:38:20;6.00;80.10
20492;DHT22;10404;51.468;6.762;2024-01-30T05:40:46;6.00;80.40
20492;DHT22;10404;51.468;6.762;2024-01-30T05:43:12;6.00;80.30
20492;DHT22;10404;51.468;6.762;2024-01-30T05:45:37;6.00;80.40
20492;DHT22;10404;51.468;6.762;2024-01-30T05:48:04;6.00;80.40
20492;DHT22;10404;51.468;6.762;2024-01-30T05:50:30;6.00;80.20
20492;DHT22;10404;51.468;6.762;2024-01-30T05:52:55;6.00;80.50
20492;DHT22;10404;51.468;6.762;2024-01-30T05:55:21;6.00;80.20
20492;DHT22;10404;51.468;6.762;2024-01-30T05:57:47;6.00;80.30
20492;DHT22;10404;51.468;6.762;2024-01-30T06:00:12;6.00;80.30
20492;DHT22;10404;51.468;6.762;2024-01-30T06:02:38;6.00;80.40
20492;DHT22;10404;51.468;6.762;2024-01-30T06:05:04;6.00;80.50
20492;DHT22;10404;51.468;6.762;2024-01-30T06:07:29;6.00;80.30
20492;DHT22;10404;51.468;6.762;2024-01-30T06:09:55;6.00;80.50
20492;DHT22;10404;51.468;6.762;2024-01-30T06:12:21;6.00;80.30
20492;DHT22;10404;51.468;6.762;2024-01-30T06:14:46;6.00;80.20
20492;DHT22;10404;51.468;6.762;2024-01-30T06:17:12;6.00;80.20
20492;DHT22;10404;51.468;6.762;2024-01-30T06:19:38;5.90;80.30
20492;DHT22;10404;51.468;6.762;2024-01-30T06:22:07;5.90;80.30
20492;DHT22;10404;51.468;6.762;2024-01-30T06:24:32;5.90;80.20
20492;DHT22;10404;51.468;6.762;2024-01-30T06:26:59;5.90;80.30
20492;DHT22;10404;51.468;6.762;2024-01-30T06:29:26;5.90;80.50
20492;DHT22;10404;51.468;6.762;2024-01-30T06:31:52;5.90;80.30
20492;DHT22;10404;51.468;6.762;2024-01-30T06:34:17;5.90;80.40
20492;DHT22;10404;51.468;6.762;2024-01-30T06:36:43;5.90;80.40
20492;DHT22;10404;51.468;6.762;2024-01-30T06:39:08;5.90;80.40
20492;DHT22;10404;51.468;6.762;2024-01-30T06:41:34;5.90;80.50
20492;DHT22;10404;51.468;6.762;2024-01-30T06:44:01;5.90;80.40
20492;DHT22;10404;51.468;6.762;2024-01-30T06:46:27;5.90;80.40
20492;DHT22;10404;51.468;6.762;2024-01-30T06:48:52;5.90;80.60
20492;DHT22;10404;51.468;6.762;2024-01-30T06:51:18;5.90;80.80
20492;DHT22;10404;51.468;6.762;2024-01-30T06:53:44;5.90;80.70
20492;DHT22;10404;51.468;6.762;2024-01-30T06:56:09;6.00;80.70
20492;DHT22;10404;51.468;6.762;2024-01-30T06:58:35;6.00;80.80
20492;DHT22;10404;51.468;6.762;2024-01-30T07:01:00;6.00;80.60
20492;DHT22;10404;51.468;6.762;2024-01-30T07:03:26;5.90;80.80
20492;DHT22;10404;51.468;6.762;2024-01-30T07:05:51;6.00;80.80
20492;DHT22;10404;51.468;6.762;2024-01-30T07:08:17;6.00;80.80
20492;DHT22;10404;51.468;6.762;2024-01-30T07:10:43;5.90;80.80
20492;DHT22;10404;51.468;6.762;2024-01-30T07:13:13;6.00;80.80
20492;DHT22;10404;51.468;6.762;2024-01-30T07:15:41;6.00;80.80
20492;DHT22;10404;51.468;6.762;2024-01-30T07:18:07;5.90;80.80
20492;DHT22;10404;51.468;6.762;2024-01-30T07:20:33;6.00;81.00
20492;DHT22;10404;51.468;6.762;2024-01-30T07:22:59;6.00;80.80
20492;DHT22;10404;51.468;6.762;2024-01-30T07:25:24;6.00;81.00
20492;DHT22;10404;51.468;6.762;2024-01-30T07:27:55;6.00;81.20
20492;DHT22;10404;51.468;6.762;2024-01-30T07:30:20;6.00;80.90
20492;DHT22;10404;51.468;6.762;2024-01-30T07:32:46;6.00;80.90
20492;DHT22;10404;51.468;6.762;2024-01-30T07:35:13;6.00;81.10
20492;DHT22;10404;51.468;6.762;2024-01-30T07:37:39;6.00;81.00
20492;DHT22;10404;51.468;6.762;2024-01-30T07:40:05;6.00;81.30
20492;DHT22;10404;51.468;6.762;2024-01-30T07:42:31;6.00;81.10
20492;DHT22;10404;51.468;6.762;2024-01-30T07:44:57;6.00;81.20
20492;DHT22;10404;51.468;6.762;2024-01-30T07:47:22;6.00;81.10
20492;DHT22;10404;51.468;6.762;2024-01-30T07:49:48;6.00;81.00
20492;DHT22;10404;51.468;6.762;2024-01-30T07:52:13;6.00;81.40
20492;DHT22;10404;51.468;6.762;2024-01-30T07:54:39;6.00;81.20
20492;DHT22;10404;51.468;6.762;2024-01-30T08:03:51;6.00;81.10
20492;DHT22;10404;51.468;6.762;2024-01-30T08:06:17;6.00;81.00
20492;DHT22;10404;51.468;6.762;2024-01-30T08:08:43;6.00;81.10
20492;DHT22;10404;51.468;6.762;2024-01-30T08:11:08;6.00;81.10
20492;DHT22;10404;51.468;6.762;2024-01-30T08:13:34;6.00;81.40
20492;DHT22;10404;51.468;6.762;2024-01-30T08:15:59;6.00;81.30
20492;DHT22;10404;51.468;6.762;2024-01-30T08:18:25;6.10;81.40
20492;DHT22;10404;51.468;6.762;2024-01-30T08:20:50;6.00;81.50
20492;DHT22;10404;51.468;6.762;2024-01-30T08:23:16;6.10;81.50
20492;DHT22;10404;51.468;6.762;2024-01-30T08:25:41;6.10;81.50
20492;DHT22;10404;51.468;6.762;2024-01-30T08:28:07;6.10;81.50
20492;DHT22;10404;51.468;6.762;2024-01-30T08:30:33;6.10;81.50
20492;DHT22;10404;51.468;6.762;2024-01-30T08:32:59;6.10;81.20
20492;DHT22;10404;51.468;6.762;2024-01-30T08:35:24;6.10;81.70
20492;DHT22;10404;51.468;6.762;2024-01-30T08:37:50;6.10;81.80
20492;DHT22;10404;51.468;6.762;2024-01-30T08:40:15;6.10;81.60
20492;DHT22;10404;51.468;6.762;2024-01-30T08:42:41;6.10;81.50
20492;DHT22;10404;51.468;6.762;2024-01-30T08:45:07;6.20;81.60
20492;DHT22;10404;51.468;6.762;2024-01-30T08:47:32;6.10;81.40
20492;DHT22;10404;51.468;6.762;2024-01-30T08:49:58;6.10;81.50
20492;DHT22;10404;51.468;6.762;2024-01-30T08:52:24;6.20;81.90
20492;DHT22;10404;51.468;6.762;2024-01-30T08:54:50;6.20;81.70
20492;DHT22;10404;51.468;6.762;2024-01-30T08:57:15;6.20;81.70
20492;DHT22;10404;51.468;6.762;2024-01-30T08:59:41;6.20;82.20
20492;DHT22;10404;51.468;6.762;2024-01-30T09:02:09;6.20;82.00
20492;DHT22;10404;51.468;6.762;2024-01-30T09:04:35;6.30;82.00
20492;DHT22;10404;51.468;6.762;2024-01-30T09:07:01;6.30;82.10
20492;DHT22;10404;51.468;6.762;2024-01-30T09:09:26;6.30;82.00
20492;DHT22;10404;51.468;6.762;2024-01-30T09:11:52;6.30;82.10
20492;DHT22;10404;51.468;6.762;2024-01-30T09:14:17;6.30;81.90
20492;DHT22;10404;51.468;6.762;2024-01-30T09:16:43;6.40;82.20
20492;DHT22;10404;51.468;6.762;2024-01-30T09:19:08;6.40;82.10
20492;DHT22;10404;51.468;6.762;2024-01-30T09:21:34;6.40;82.50
20492;DHT22;10404;51.468;6.762;2024-01-30T09:24:03;6.40;82.20
20492;DHT22;10404;51.468;6.762;2024-01-30T09:26:31;6.40;82.40
20492;DHT22;10404;51.468;6.762;2024-01-30T09:28:57;6.50;82.40
20492;DHT22;10404;51.468;6.762;2024-01-30T09:31:22;6.50;82.60
20492;DHT22;10404;51.468;6.762;2024-01-30T09:33:48;6.50;82.40
20492;DHT22;10404;51.468;6.762;2024-01-30T09:36:14;6.60;82.40
20492;DHT22;10404;51.468;6.762;2024-01-30T09:38:45;6.70;82.50
20492;DHT22;10404;51.468;6.762;2024-01-30T09:41:11;6.70;82.60
20492;DHT22;10404;51.468;6.762;2024-01-30T09:43:38;6.80;82.40
20492;DHT22;10404;51.468;6.762;2024-01-30T09:46:04;6.80;82.20
20492;DHT22;10404;51.468;6.762;2024-01-30T09:48:30;6.80;82.30
20492;DHT22;10404;51.468;6.762;2024-01-30T09:50:57;6.90;82.30
20492;DHT22;10404;51.468;6.762;2024-01-30T09:53:23;6.90;82.20
20492;DHT22;10404;51.468;6.762;2024-01-30T09:55:50;7.00;82.40
20492;DHT22;10404;51.468;6.762;2024-01-30T09:58:16;7.00;82.20
20492;DHT22;10404;51.468;6.762;2024-01-30T10:00:42;7.00;82.20
20492;DHT22;10404;51.468;6.762;2024-01-30T10:03:08;7.20;82.00
20492;DHT22;10404;51.468;6.762;2024-01-30T10:05:35;7.20;81.80
20492;DHT22;10404;51.468;6.762;2024-01-30T10:08:06;7.20;82.10
20492;DHT22;10404;51.468;6.762;2024-01-30T10:10:31;7.30;81.80
20492;DHT22;10404;51.468;6.762;2024-01-30T10:12:57;7.30;81.90
20492;DHT22;10404;51.468;6.762;2024-01-30T10:15:23;7.40;81.90
20492;DHT22;10404;51.468;6.762;2024-01-30T10:17:49;7.50;81.70
20492;DHT22;10404;51.468;6.762;2024-01-30T10:20:15;7.50;81.80
20492;DHT22;10404;51.468;6.762;2024-01-30T10:22:41;7.50;81.80
20492;DHT22;10404;51.468;6.762;2024-01-30T10:25:09;7.50;81.60
20492;DHT22;10404;51.468;6.762;2024-01-30T10:27:35;7.50;81.60
20492;DHT22;10404;51.468;6.762;2024-01-30T10:30:01;7.60;81.80
20492;DHT22;10404;51.468;6.762;2024-01-30T10:32:27;7.60;82.00
20492;DHT22;10404;51.468;6.762;2024-01-30T10:34:52;7.70;81.80
20492;DHT22;10404;51.468;6.762;2024-01-30T10:37:19;7.70;81.90
20492;DHT22;10404;51.468;6.762;2024-01-30T10:39:46;7.80;81.40
20492;DHT22;10404;51.468;6.762;2024-01-30T10:42:14;7.80;81.90
20492;DHT22;10404;51.468;6.762;2024-01-30T10:45:06;7.80;81.90
20492;DHT22;10404;51.468;6.762;2024-01-30T10:47:36;7.80;81.60
20492;DHT22;10404;51.468;6.762;2024-01-30T10:50:02;7.90;81.70
20492;DHT22;10404;51.468;6.762;2024-01-30T10:52:32;8.00;81.50
20492;DHT22;10404;51.468;6.762;2024-01-30T10:54:58;8.00;81.50
20492;DHT22;10404;51.468;6.762;2024-01-30T10:57:27;8.00;81.30
20492;DHT22;10404;51.468;6.762;2024-01-30T11:00:02;8.10;81.30
20492;DHT22;10404;51.468;6.762;2024-01-30T11:02:31;8.10;81.20
20492;DHT22;10404;51.468;6.762;2024-01-30T11:04:58;8.10;81.40
20492;DHT22;10404;51.468;6.762;2024-01-30T11:07:26;8.20;81.50
20492;DHT22;10404;51.468;6.762;2024-01-30T11:12:24;8.30;81.20
20492;DHT22;10404;51.468;6.762;2024-01-30T11:15:05;8.30;81.00
20492;DHT22;10404;51.468;6.762;2024-01-30T11:17:50;8.40;80.90
20492;DHT22;10404;51.468;6.762;2024-01-30T11:20:25;8.40;81.20
20492;DHT22;10404;51.468;6.762;2024-01-30T11:22:52;8.50;81.20
20492;DHT22;10404;51.468;6.762;2024-01-30T11:25:20;8.50;81.00
20492;DHT22;10404;51.468;6.762;2024-01-30T11:27:46;8.60;80.90
20492;DHT22;10404;51.468;6.762;2024-01-30T11:30:25;8.60;81.30
20492;DHT22;10404;51.468;6.762;2024-01-30T11:33:11;8.60;81.20
20492;DHT22;10404;51.468;6.762;2024-01-30T11:35:38;8.60;81.00
20492;DHT22;10404;51.468;6.762;2024-01-30T11:38:11;8.60;80.90
20492;DHT22;10404;51.468;6.762;2024-01-30T11:40:39;8.60;81.00
20492;DHT22;10404;51.468;6.762;2024-01-30T11:43:07;8.80;81.00
20492;DHT22;10404;51.468;6.762;2024-01-30T11:45:34;8.80;80.70
20492;DHT22;10404;51.468;6.762;2024-01-30T11:48:00;8.80;81.10
20492;DHT22;10404;51.468;6.762;2024-01-30T11:50:29;8.80;81.00
20492;DHT22;10404;51.468;6.762;2024-01-30T11:52:55;8.80;81.00
20492;DHT22;10404;51.468;6.762;2024-01-30T11:55:20;8.80;81.10
20492;DHT22;10404;51.468;6.762;2024-01-30T11:57:46;8.90;80.90
20492;DHT22;10404;51.468;6.762;2024-01-30T12:00:16;8.90;81.00
20492;DHT22;10404;51.468;6.762;2024-01-30T12:02:43;8.90;81.10
20492;DHT22;10404;51.468;6.762;2024-01-30T12:05:09;8.90;81.00
20492;DHT22;10404;51.468;6.762;2024-01-30T12:07:35;8.90;81.10
20492;DHT22;10404;51.468;6.762;2024-01-30T12:10:00;9.00;81.10
20492;DHT22;10404;51.468;6.762;2024-01-30T12:12:27;9.00;81.00
20492;DHT22;10404;51.468;6.762;2024-01-30T12:14:54;9.00;81.00
20492;DHT22;10404;51.468;6.762;2024-01-30T12:17:27;9.00;80.90
20492;DHT22;10404;51.468;6.762;2024-01-30T12:20:13;9.00;81.00
20492;DHT22;10404;51.468;6.762;2024-01-30T12:22:42;9.00;80.90
20492;DHT22;10404;51.468;6.762;2024-01-30T12:25:20;9.00;81.00
20492;DHT22;10404;51.468;6.762;2024-01-30T12:27:49;9.00;80.80
20492;DHT22;10404;51.468;6.762;2024-01-30T12:30:15;9.10;80.80
20492;DHT22;10404;51.468;6.762;2024-01-30T12:32:42;9.10;80.90
20492;DHT22;10404;51.468;6.762;2024-01-30T12:37:39;9.20;81.00
20492;DHT22;10404;51.468;6.762;2024-01-30T12:40:05;9.20;80.90
20492;DHT22;10404;51.468;6.762;2024-01-30T12:42:32;9.20;80.70
20492;DHT22;10404;51.468;6.762;2024-01-30T12:44:58;9.20;81.00
20492;DHT22;10404;51.468;6.762;2024-01-30T12:47:24;9.20;81.00
20492;DHT22;10404;51.468;6.762;2024-01-30T12:49:50;9.20;81.20
20492;DHT22;10404;51.468;6.762;2024-01-30T12:52:19;9.20;80.90
20492;DHT22;10404;51.468;6.762;2024-01-30T12:54:45;9.20;81.00
20492;DHT22;10404;51.468;6.762;2024-01-30T12:57:11;9.20;80.90
20492;DHT22;10404;51.468;6.762;2024-01-30T12:59:37;9.30;81.10
20492;DHT22;10404;51.468;6.762;2024-01-30T13:02:02;9.20;80.90
20492;DHT22;10404;51.468;6.762;2024-01-30T13:04:29;9.30;81.10
20492;DHT22;10404;51.468;6.762;2024-01-30T13:06:54;9.30;81.20
20492;DHT22;10404;51.468;6.762;2024-01-30T13:09:20;9.30;81.40
20492;DHT22;10404;51.468;6.762;2024-01-30T13:11:45;9.40;81.20
20492;DHT22;10404;51.468;6.762;2024-01-30T13:14:11;9.40;81.40
20492;DHT22;10404;51.468;6.762;2024-01-30T13:16:37;9.40;81.20
20492;DHT22;10404;51.468;6.762;2024-01-30T13:19:03;9.40;81.40
20492;DHT22;10404;51.468;6.762;2024-01-30T13:21:29;9.40;81.50
20492;DHT22;10404;51.468;6.762;2024-01-30T13:23:54;9.40;81.50
20492;DHT22;10404;51.468;6.762;2024-01-30T13:26:20;9.40;81.40
20492;DHT22;10404;51.468;6.762;2024-01-30T13:28:46;9.50;81.30
20492;DHT22;10404;51.468;6.762;2024-01-30T13:31:13;9.50;81.40
20492;DHT22;10404;51.468;6.762;2024-01-30T13:33:40;9.50;81.40
20492;DHT22;10404;51.468;6.762;2024-01-30T13:36:09;9.50;81.50
20492;DHT22;10404;51.468;6.762;2024-01-30T13:38:35;9.50;81.30
20492;DHT22;10404;51.468;6.762;2024-01-30T13:41:01;9.60;81.20
20492;DHT22;10404;51.468;6.762;2024-01-30T13:43:26;9.60;81.50
20492;DHT22;10404;51.468;6.762;2024-01-30T13:45:52;9.60;81.50
20492;DHT22;10404;51.468;6.762;2024-01-30T13:48:18;9.70;81.40
20492;DHT22;10404;51.468;6.762;2024-01-30T13:50:44;9.70;81.40
20492;DHT22;10404;51.468;6.762;2024-01-30T13:53:09;9.70;81.30
20492;DHT22;10404;51.468;6.762;2024-01-30T13:55:35;9.70;81.30
20492;DHT22;10404;51.468;6.762;2024-01-30T13:58:01;9.70;81.30
20492;DHT22;10404;51.468;6.762;2024-01-30T14:00:29;9.70;81.20
20492;DHT22;10404;51.468;6.762;2024-01-30T14:02:55;9.70;81.30
20492;DHT22;10404;51.468;6.762;2024-01-30T14:05:21;9.80;81.30
20492;DHT22;10404;51.468;6.762;2024-01-30T14:07:47;9.80;81.40
20492;DHT22;10404;51.468;6.762;2024-01-30T14:10:13;9.90;81.40
20492;DHT22;10404;51.468;6.762;2024-01-30T14:12:39;9.90;80.80
20492;DHT22;10404;51.468;6.762;2024-01-30T14:15:05;10.00;81.10
20492;DHT22;10404;51.468;6.762;2024-01-30T14:17:30;10.00;81.00
20492;DHT22;10404;51.468;6.762;2024-01-30T14:19:56;10.00;80.80
20492;DHT22;10404;51.468;6.762;2024-01-30T14:22:22;10.00;80.70
20492;DHT22;10404;51.468;6.762;2024-01-30T14:24:47;10.00;80.70
20492;DHT22;10404;51.468;6.762;2024-01-30T14:27:13;10.00;80.70
20492;DHT22;10404;51.468;6.762;2024-01-30T14:29:38;10.10;80.50
20492;DHT22;10404;51.468;6.762;2024-01-30T14:32:04;10.10;80.50
20492;DHT22;10404;51.468;6.762;2024-01-30T14:34:30;10.10;80.50
20492;DHT22;10404;51.468;6.762;2024-01-30T14:36:56;10.10;80.50
20492;DHT22;10404;51.468;6.762;2024-01-30T14:39:22;10.10;80.60
20492;DHT22;10404;51.468;6.762;2024-01-30T14:41:47;10.10;80.60
20492;DHT22;10404;51.468;6.762;2024-01-30T14:44:13;10.20;80.50
20492;DHT22;10404;51.468;6.762;2024-01-30T14:46:39;10.20;80.30
20492;DHT22;10404;51.468;6.762;2024-01-30T14:49:08;10.20;80.30
20492;DHT22;10404;51.468;6.762;2024-01-30T14:51:35;10.20;80.30
20492;DHT22;10404;51.468;6.762;2024-01-30T14:54:00;10.20;80.00
20492;DHT22;10404;51.468;6.762;2024-01-30T14:56:26;10.30;76.60
20492;DHT22;10404;51.468;6.762;2024-01-30T14:58:52;10.30;75.70
20492;DHT22;10404;51.468;6.762;2024-01-30T15:01:18;10.30;74.90
20492;DHT22;10404;51.468;6.762;2024-01-30T15:03:44;10.30;75.30
20492;DHT22;10404;51.468;6.762;2024-01-30T15:06:12;10.30;75.90
20492;DHT22;10404;51.468;6.762;2024-01-30T15:08:38;10.30;76.70
20492;DHT22;10404;51.468;6.762;2024-01-30T15:11:04;10.30;77.00
20492;DHT22;10404;51.468;6.762;2024-01-30T15:13:30;10.30;77.10
20492;DHT22;10404;51.468;6.762;2024-01-30T15:15:56;10.20;77.20
20492;DHT22;10404;51.468;6.762;2024-01-30T15:18:22;10.20;77.50
20492;DHT22;10404;51.468;6.762;2024-01-30T15:20:47;10.20;77.20
20492;DHT22;10404;51.468;6.762;2024-01-30T15:23:13;10.20;77.10
20492;DHT22;10404;51.468;6.762;2024-01-30T15:25:39;10.20;77.30
20492;DHT22;10404;51.468;6.762;2024-01-30T15:28:05;10.20;77.30
20492;DHT22;10404;51.468;6.762;2024-01-30T15:30:31;10.10;77.30
20492;DHT22;10404;51.468;6.762;2024-01-30T15:32:56;10.10;76.90
20492;DHT22;10404;51.468;6.762;2024-01-30T15:35:22;10.10;77.10
20492;DHT22;10404;51.468;6.762;2024-01-30T15:37:47;10.10;76.60
20492;DHT22;10404;51.468;6.762;2024-01-30T15:40:13;10.10;76.30
20492;DHT22;10404;51.468;6.762;2024-01-30T15:42:38;10.00;76.20
20492;DHT22;10404;51.468;6.762;2024-01-30T15:45:04;10.10;76.70
20492;DHT22;10404;51.468;6.762;2024-01-30T15:47:30;10.00;76.50
20492;DHT22;10404;51.468;6.762;2024-01-30T15:49:57;10.00;76.50